Cruise inventory

Unknown unknown Tartaruga 20100128

Cruise plan

Cruise Info. 
Ship name (ship code)Unknown unknown (ZZ99)
Cruise identifierTartaruga 20100128
Cruise period2010-01-28 — 2010-02-18
StatusCompleted
Port of departureSoyo Oil Terminal, Angola
Port of returnSoyo Oil Terminal, Angola
PurposeResearch
ObjectivesLong-term measurement programme Angola LNG Navigation Channel.
Ship used was Tartaruga, a 28-foot survey vessel owned by Angola LNG.
Chief scientistPaul Trapier Puckette (Evans-Hamilton, Inc)
Ocean/sea areas 
GeneralSouth East Atlantic Ocean (limit 20W)
SpecificCongo Channel
Data held at BODC 
Series/Profiles 
50  CTD/STD cast
Density of the water column
Electrical conductivity of the water column
Vertical spatial coordinates
Sound velocity and travel time in the water column
Salinity of the water column
Temperature of the water column
Reference numbers
Date and time
Density of the water column
Electrical conductivity of the water column
Vertical spatial coordinates
Sound velocity and travel time in the water column
Salinity of the water column
Temperature of the water column
Reference numbers
Date and time

BODC idDate/TimeLocationDoc.
17390062010-01-30 06:58:27  — 2010-01-30 06:59:12 6° 5' 32" S  12° 19' 59" E  View metadata report for BODC series reference number 1739006
17390182010-01-30 08:01:56  — 2010-01-30 08:02:56 6° 5' 5" S  12° 20' 9" E  View metadata report for BODC series reference number 1739018
17390312010-01-30 08:18:14  — 2010-01-30 08:19:06 6° 5' 33" S  12° 19' 59" E  View metadata report for BODC series reference number 1739031
17390432010-01-30 08:47:29  — 2010-01-30 08:48:18 6° 3' 53" S  12° 20' 31" E  View metadata report for BODC series reference number 1739043
17390552010-01-30 09:40:20  — 2010-01-30 09:41:25 6° 5' 5" S  12° 20' 9" E  View metadata report for BODC series reference number 1739055
17390672010-01-30 09:57:28  — 2010-01-30 09:58:24 6° 5' 34" S  12° 19' 59" E  View metadata report for BODC series reference number 1739067
17390792010-01-30 10:17:55  — 2010-01-30 10:18:48 6° 4' 13" S  12° 20' 22" E  View metadata report for BODC series reference number 1739079
17390802010-01-30 10:59:35  — 2010-01-30 11:00:29 6° 5' 5" S  12° 20' 9" E  View metadata report for BODC series reference number 1739080
17390922010-01-30 11:15:50  — 2010-01-30 11:16:39 6° 5' 34" S  12° 19' 59" E  View metadata report for BODC series reference number 1739092
17391112010-01-31 09:12:34  — 2010-01-31 09:13:28 6° 5' 0" S  12° 20' 11" E  View metadata report for BODC series reference number 1739111
17391232010-01-31 09:46:47  — 2010-01-31 09:47:52 6° 2' 44" S  12° 20' 57" E  View metadata report for BODC series reference number 1739123
17391352010-01-31 10:35:33  — 2010-01-31 10:36:27 6° 4' 59" S  12° 20' 11" E  View metadata report for BODC series reference number 1739135
17391472010-01-31 10:56:48  — 2010-01-31 10:57:55 6° 3' 51" S  12° 20' 32" E  View metadata report for BODC series reference number 1739147
17391592010-01-31 11:34:14  — 2010-01-31 11:35:49 6° 4' 23" S  12° 20' 25" E  View metadata report for BODC series reference number 1739159
17391602010-01-31 12:25:47  — 2010-01-31 12:26:50 6° 5' 1" S  12° 20' 11" E  View metadata report for BODC series reference number 1739160
17391722010-01-31 13:34:52  — 2010-01-31 13:36:12 6° 4' 58" S  12° 20' 11" E  View metadata report for BODC series reference number 1739172
17391842010-01-31 13:58:39  — 2010-01-31 14:00:29 6° 3' 37" S  12° 20' 32" E  View metadata report for BODC series reference number 1739184
17391962010-01-31 14:53:26  — 2010-01-31 14:54:42 6° 5' 3" S  12° 20' 9" E  View metadata report for BODC series reference number 1739196
17392032010-02-01 15:04:20  — 2010-02-01 15:05:17 6° 5' 34" S  12° 19' 59" E  View metadata report for BODC series reference number 1739203
17392152010-02-01 15:38:16  — 2010-02-01 15:39:04 6° 3' 43" S  12° 20' 26" E  View metadata report for BODC series reference number 1739215
17392272010-02-01 16:25:03  — 2010-02-01 16:25:52 6° 5' 5" S  12° 20' 9" E  View metadata report for BODC series reference number 1739227
17392392010-02-08 08:52:11  — 2010-02-08 08:53:26 6° 4' 59" S  12° 20' 11" E  View metadata report for BODC series reference number 1739239
17392402010-02-08 09:16:01  — 2010-02-08 09:16:58 6° 3' 38" S  12° 20' 22" E  View metadata report for BODC series reference number 1739240
17392522010-02-08 10:36:10  — 2010-02-08 10:37:02 6° 5' 0" S  12° 20' 11" E  View metadata report for BODC series reference number 1739252
17392642010-02-08 11:27:10  — 2010-02-08 11:28:21 6° 5' 5" S  12° 20' 9" E  View metadata report for BODC series reference number 1739264
17392762010-02-08 11:49:57  — 2010-02-08 11:51:02 6° 3' 48" S  12° 20' 34" E  View metadata report for BODC series reference number 1739276
17392882010-02-08 12:59:10  — 2010-02-08 13:00:21 6° 5' 32" S  12° 20' 1" E  View metadata report for BODC series reference number 1739288
17393072010-02-08 13:24  — 2010-02-08 13:25:10 6° 4' 9" S  12° 20' 30" E  View metadata report for BODC series reference number 1739307
17393192010-02-08 14:09:38  — 2010-02-08 14:10:42 6° 5' 4" S  12° 20' 9" E  View metadata report for BODC series reference number 1739319
17393202010-02-08 14:22:39  — 2010-02-08 14:23:19 6° 5' 34" S  12° 19' 59" E  View metadata report for BODC series reference number 1739320
17393322010-02-08 15:42:37  — 2010-02-08 15:43:52 6° 5' 34" S  12° 19' 58" E  View metadata report for BODC series reference number 1739332
17393442010-02-09 07:45:15  — 2010-02-09 07:46 6° 4' 59" S  12° 20' 11" E  View metadata report for BODC series reference number 1739344
17393562010-02-09 08:16:22  — 2010-02-09 08:16:58 6° 3' 49" S  12° 20' 32" E  View metadata report for BODC series reference number 1739356
17393682010-02-09 09:03:37  — 2010-02-09 09:04:42 6° 5' 3" S  12° 20' 10" E  View metadata report for BODC series reference number 1739368
17393812010-02-09 09:29:28  — 2010-02-09 09:30:16 6° 3' 47" S  12° 20' 31" E  View metadata report for BODC series reference number 1739381
17393932010-02-09 12:50:53  — 2010-02-09 12:51:44 6° 5' 4" S  12° 20' 9" E  View metadata report for BODC series reference number 1739393
17394002010-02-09 13:49:56  — 2010-02-09 13:50:57 6° 5' 2" S  12° 20' 11" E  View metadata report for BODC series reference number 1739400
17394122010-02-09 14:10:22  — 2010-02-09 14:12:01 6° 3' 50" S  12° 20' 37" E  View metadata report for BODC series reference number 1739412
17394242010-02-09 15:04:57  — 2010-02-09 15:05:42 6° 5' 1" S  12° 20' 12" E  View metadata report for BODC series reference number 1739424
17394362010-02-09 15:44:25  — 2010-02-09 15:45:08 6° 3' 49" S  12° 20' 37" E  View metadata report for BODC series reference number 1739436
17394482010-02-10 06:20:49  — 2010-02-10 06:21:42 6° 5' 35" S  12° 19' 58" E  View metadata report for BODC series reference number 1739448
17394612010-02-10 06:50:55  — 2010-02-10 06:51:51 6° 4' 10" S  12° 20' 32" E  View metadata report for BODC series reference number 1739461
17394732010-02-10 07:31:14  — 2010-02-10 07:32:01 6° 5' 5" S  12° 20' 9" E  View metadata report for BODC series reference number 1739473
17394852010-02-10 07:43:55  — 2010-02-10 07:44:36 6° 5' 35" S  12° 19' 58" E  View metadata report for BODC series reference number 1739485
17394972010-02-10 08:09:13  — 2010-02-10 08:10:06 6° 4' 15" S  12° 20' 29" E  View metadata report for BODC series reference number 1739497
17395042010-02-10 09:09:46  — 2010-02-10 09:10:31 6° 5' 41" S  12° 19' 55" E  View metadata report for BODC series reference number 1739504
17395162010-02-10 09:36:39  — 2010-02-10 09:37:28 6° 4' 10" S  12° 20' 25" E  View metadata report for BODC series reference number 1739516
17395282010-02-10 10:13:14  — 2010-02-10 10:14:02 6° 5' 4" S  12° 20' 9" E  View metadata report for BODC series reference number 1739528
17395412010-02-10 10:31:34  — 2010-02-10 10:32:23 6° 5' 35" S  12° 19' 58" E  View metadata report for BODC series reference number 1739541
17395532010-02-10 12:35:57  — 2010-02-10 12:36:45 6° 5' 35" S  12° 19' 58" E  View metadata report for BODC series reference number 1739553